createdAt,value
2022-11-21T00:00:17.209Z,100220.69
2022-11-21T00:03:19.319Z,100228.25
2022-11-21T00:06:21.156Z,100235.06
2022-11-21T00:09:22.742Z,100240.34
2022-11-21T00:12:24.437Z,100241.22
2022-11-21T00:15:26.519Z,100230.72
2022-11-21T00:18:28.130Z,100229.69
2022-11-21T00:21:29.727Z,100244.06
2022-11-21T00:24:31.384Z,100238.63
2022-11-21T00:27:33.023Z,100246.22
2022-11-21T00:30:34.683Z,100237.09
2022-11-21T00:33:39.327Z,100233.19
2022-11-21T00:36:40.939Z,100231.41
2022-11-21T00:39:42.623Z,100227.78
2022-11-21T00:42:44.484Z,100222.31
2022-11-21T00:45:46.079Z,100214.69
2022-11-21T00:48:47.732Z,100209.78
2022-11-21T00:51:49.353Z,100212.88
2022-11-21T00:54:51.075Z,100214.94
2022-11-21T00:57:52.647Z,100208.66
2022-11-21T01:01:03.357Z,100210.50
2022-11-21T01:04:05.314Z,100214.47
2022-11-21T01:07:06.971Z,100201.13
2022-11-21T01:10:08.742Z,100203.50
2022-11-21T01:13:10.449Z,100185.69
2022-11-21T01:16:23.885Z,100192.75
2022-11-21T01:19:25.517Z,100196.41
2022-11-21T01:22:27.224Z,100194.88
2022-11-21T01:25:28.766Z,100193.06
2022-11-21T01:28:30.922Z,100194.13
2022-11-21T01:31:32.681Z,100202.75
2022-11-21T01:34:34.438Z,100195.50
2022-11-21T01:37:36.225Z,100189.22
2022-11-21T01:40:39.547Z,100183.47
2022-11-21T01:43:41.542Z,100168.09
2022-11-21T01:46:43.335Z,100175.41
2022-11-21T01:49:47.021Z,100154.25
2022-11-21T01:52:48.706Z,100164.19
2022-11-21T01:55:50.845Z,100164.72
2022-11-21T01:58:57.447Z,100164.19
2022-11-21T02:02:02.231Z,100158.44
2022-11-21T02:05:08.296Z,100160.00
2022-11-21T02:08:17.994Z,100153.78
2022-11-21T02:11:37.722Z,100153.22
2022-11-21T02:14:42.340Z,100152.41
2022-11-21T02:17:44.042Z,100150.09
2022-11-21T02:20:53.291Z,100158.97
2022-11-21T02:24:03.893Z,100152.19
2022-11-21T02:27:05.543Z,100159.22
2022-11-21T02:30:09.625Z,100150.69
2022-11-21T02:33:12.568Z,100142.84
2022-11-21T02:36:46.713Z,100153.31
2022-11-21T02:39:48.933Z,100142.88
2022-11-21T02:43:17.078Z,100136.59
2022-11-21T02:46:18.683Z,100130.06
2022-11-21T02:49:39.675Z,100127.53
2022-11-21T02:52:44.552Z,100127.28
2022-11-21T02:55:46.277Z,100124.19
2022-11-21T02:58:48.148Z,100129.91
2022-11-21T03:01:49.807Z,100126.28
2022-11-21T03:04:51.568Z,100118.72
2022-11-21T03:07:53.229Z,100117.94
2022-11-21T03:10:54.918Z,100126.00
2022-11-21T03:13:56.553Z,100125.53
2022-11-21T03:16:58.141Z,100123.41
2022-11-21T03:19:59.818Z,100115.56
2022-11-21T03:23:02.295Z,100123.66
2022-11-21T03:26:03.871Z,100122.09
2022-11-21T03:29:05.456Z,100121.09
2022-11-21T03:32:07.089Z,100125.50
2022-11-21T03:35:09.029Z,100113.25
2022-11-21T03:38:10.663Z,100101.75
2022-11-21T03:41:30.732Z,100097.09
2022-11-21T03:44:32.330Z,100099.69
2022-11-21T03:47:34.192Z,100103.31
2022-11-21T03:50:35.869Z,100093.38
2022-11-21T03:53:37.456Z,100095.19
2022-11-21T03:56:41.614Z,100098.59
2022-11-21T03:59:43.183Z,100098.31
2022-11-21T04:02:44.747Z,100089.19
2022-11-21T04:05:46.322Z,100095.97
2022-11-21T04:08:49.038Z,100094.13
2022-11-21T04:11:50.690Z,100104.09
2022-11-21T04:14:52.295Z,100110.63
2022-11-21T04:17:53.962Z,100105.91
2022-11-21T04:21:02.968Z,100110.34
2022-11-21T04:24:04.924Z,100112.19
2022-11-21T04:27:06.584Z,100115.59
2022-11-21T04:30:08.604Z,100121.88
2022-11-21T04:33:12.308Z,100112.25
2022-11-21T04:36:15.986Z,100111.16
2022-11-21T04:39:17.587Z,100114.34
2022-11-21T04:42:19.160Z,100119.00
2022-11-21T04:45:20.746Z,100124.25
2022-11-21T04:48:22.492Z,100110.38
2022-11-21T04:51:24.127Z,100109.38
2022-11-21T04:54:26.126Z,100119.53
2022-11-21T04:57:28.951Z,100104.66
2022-11-21T05:00:30.577Z,100098.97
2022-11-21T05:03:32.241Z,100106.28
2022-11-21T05:06:33.814Z,100112.28
2022-11-21T05:09:35.431Z,100108.88
2022-11-21T05:12:55.407Z,100104.44
2022-11-21T05:15:57.666Z,100103.63
2022-11-21T05:18:59.244Z,100102.09
2022-11-21T05:22:00.828Z,100107.06
2022-11-21T05:25:02.439Z,100100.00
2022-11-21T05:28:04.148Z,100101.03
2022-11-21T05:31:05.749Z,100099.44
2022-11-21T05:34:09.934Z,100105.44
2022-11-21T05:37:11.537Z,100114.31
2022-11-21T05:40:13.344Z,100123.47
2022-11-21T05:43:33.357Z,100110.66
2022-11-21T05:46:34.969Z,100108.34
2022-11-21T05:49:37.090Z,100120.84
2022-11-21T05:52:38.726Z,100124.00
2022-11-21T05:55:40.316Z,100116.16
2022-11-21T05:58:42.615Z,100115.34
2022-11-21T06:02:02.849Z,100108.56
2022-11-21T06:05:04.755Z,100111.94
2022-11-21T06:08:06.355Z,100121.31
2022-11-21T06:11:10.464Z,100133.31
2022-11-21T06:14:12.138Z,100139.84
2022-11-21T06:17:13.763Z,100135.91
2022-11-21T06:20:15.452Z,100134.59
2022-11-21T06:23:17.156Z,100139.28
2022-11-21T06:26:22.541Z,100140.28
2022-11-21T06:29:24.215Z,100147.88
2022-11-21T06:32:25.954Z,100155.66
2022-11-21T06:35:27.571Z,100149.41
2022-11-21T06:38:29.227Z,100150.44
2022-11-21T06:41:31.913Z,100168.41
2022-11-21T06:44:33.488Z,100163.31
2022-11-21T06:47:35.679Z,100161.00
2022-11-21T06:50:38.661Z,100160.72
2022-11-21T06:53:40.285Z,100167.72
2022-11-21T06:56:42.154Z,100169.00
2022-11-21T06:59:43.951Z,100171.59
2022-11-21T07:02:45.941Z,100163.28
2022-11-21T07:05:48.184Z,100168.53
2022-11-21T07:09:17.518Z,100175.03
2022-11-21T07:12:43.465Z,100176.84
2022-11-21T07:15:46.487Z,100177.56
2022-11-21T07:18:51.421Z,100171.84
2022-11-21T07:21:53.261Z,100179.97
2022-11-21T07:24:54.987Z,100158.25
2022-11-21T07:28:01.016Z,100160.13
2022-11-21T07:31:07.033Z,100167.97
2022-11-21T07:34:11.908Z,100146.34
2022-11-21T07:37:13.587Z,100141.66
2022-11-21T07:40:15.367Z,100156.78
2022-11-21T07:43:17.036Z,100162.47
2022-11-21T07:46:18.622Z,100155.03
2022-11-21T07:49:20.284Z,100145.03
2022-11-21T07:52:22.074Z,100147.41
2022-11-21T07:55:23.663Z,100162.09
2022-11-21T07:58:25.423Z,100166.16
2022-11-21T08:01:27.124Z,100159.13
2022-11-21T08:04:29.083Z,100141.81
2022-11-21T08:07:30.867Z,100148.31
2022-11-21T08:10:33.059Z,100163.22
2022-11-21T08:13:35.432Z,100142.63
2022-11-21T08:16:37.079Z,100143.09
2022-11-21T08:19:38.720Z,100144.84
2022-11-21T08:22:41.631Z,100158.84
2022-11-21T08:25:43.828Z,100173.16
2022-11-21T08:28:45.504Z,100172.22
2022-11-21T08:31:47.145Z,100178.38
2022-11-21T08:34:48.760Z,100186.88
2022-11-21T08:37:55.743Z,100178.91
2022-11-21T08:41:23.528Z,100184.00
2022-11-21T08:44:25.183Z,100187.59
2022-11-21T08:47:27.118Z,100184.16
2022-11-21T08:50:28.922Z,100169.91
2022-11-21T08:53:30.553Z,100190.78
2022-11-21T08:56:32.181Z,100183.69
2022-11-21T08:59:35.866Z,100184.53
2022-11-21T09:02:37.484Z,100189.56
2022-11-21T09:05:39.066Z,100189.50
2022-11-21T09:08:40.690Z,100186.09
2022-11-21T09:11:42.727Z,100187.34
2022-11-21T09:15:03.039Z,100187.09
2022-11-21T09:18:05.222Z,100176.81
2022-11-21T09:21:07.243Z,100177.75
2022-11-21T09:24:08.836Z,100171.44
2022-11-21T09:27:10.443Z,100167.78
2022-11-21T09:30:12.229Z,100161.56
2022-11-21T09:33:17.054Z,100163.75
2022-11-21T09:36:18.688Z,100162.78
2022-11-21T09:39:21.660Z,100155.69
2022-11-21T09:42:53.111Z,100164.31
2022-11-21T09:46:03.044Z,100158.16
2022-11-21T09:49:07.574Z,100167.44
2022-11-21T09:52:11.925Z,100171.63
2022-11-21T09:55:28.925Z,100175.88
2022-11-21T09:58:42.224Z,100177.50
2022-11-21T10:01:43.849Z,100187.84
2022-11-21T10:04:47.148Z,100186.09
2022-11-21T10:07:53.073Z,100188.00
2022-11-21T10:10:58.826Z,100190.31
2022-11-21T10:14:23.358Z,100191.91
2022-11-21T10:17:48.662Z,100180.13
2022-11-21T10:20:54.494Z,100190.25
2022-11-21T10:23:56.550Z,100189.97
2022-11-21T10:27:04.352Z,100182.81
2022-11-21T10:30:14.383Z,100177.41
2022-11-21T10:33:26.484Z,100163.41
2022-11-21T10:36:36.679Z,100173.91
2022-11-21T10:39:43.379Z,100170.38
2022-11-21T10:43:26.384Z,100166.53
2022-11-21T10:46:28.051Z,100162.00
2022-11-21T10:49:34.288Z,100159.63
2022-11-21T10:52:49.195Z,100155.75
2022-11-21T10:56:01.751Z,100152.81
2022-11-21T10:59:18.956Z,100152.31
2022-11-21T11:02:20.569Z,100155.19
2022-11-21T11:05:24.389Z,100156.88
2022-11-21T11:08:28.034Z,100157.31
2022-11-21T11:11:29.708Z,100155.75
2022-11-21T11:14:33.035Z,100144.88
2022-11-21T11:17:34.688Z,100145.09
2022-11-21T11:20:38.354Z,100142.03
2022-11-21T11:28:53.073Z,100137.91
2022-11-21T11:32:02.100Z,100158.34
2022-11-21T11:35:12.795Z,100148.22
2022-11-21T11:38:14.659Z,100146.28
2022-11-21T11:41:52.445Z,100143.47
2022-11-21T11:45:18.922Z,100148.53
2022-11-21T11:48:20.672Z,100149.72
2022-11-21T11:51:31.906Z,100138.22
2022-11-21T11:54:45.406Z,100146.84
2022-11-21T11:57:50.212Z,100137.59
2022-11-21T12:01:00.484Z,100148.47
2022-11-21T12:04:20.914Z,100149.16
2022-11-21T12:08:33.291Z,100137.63
2022-11-21T12:11:42.149Z,100131.50
2022-11-21T12:15:14.593Z,100135.00
2022-11-21T12:18:19.640Z,100143.56
2022-11-21T12:21:23.432Z,100140.25
2022-11-21T12:24:25.130Z,100140.31
2022-11-21T12:27:31.867Z,100135.88
2022-11-21T12:30:36.435Z,100131.00
2022-11-21T12:33:58.582Z,100126.19
2022-11-21T12:37:09.574Z,100127.88
2022-11-21T12:40:26.431Z,100125.25
2022-11-21T12:43:49.876Z,100124.97
2022-11-21T12:47:19.147Z,100135.75
2022-11-21T12:50:46.459Z,100130.84
2022-11-21T12:54:31.224Z,100144.69
2022-11-21T12:57:55.631Z,100127.47
2022-11-21T13:01:20.864Z,100133.19
2022-11-21T13:04:30.434Z,100146.22
2022-11-21T13:07:32.865Z,100133.25
2022-11-21T13:10:34.823Z,100150.50
2022-11-21T13:13:38.836Z,100147.09
2022-11-21T13:16:48.263Z,100135.34
2022-11-21T13:19:58.795Z,100137.31
2022-11-21T13:23:06.299Z,100133.13
2022-11-21T13:26:25.958Z,100137.59
2022-11-21T13:29:27.864Z,100134.72
2022-11-21T13:32:43.593Z,100140.91
2022-11-21T13:35:51.365Z,100142.81
2022-11-21T13:38:53.765Z,100141.09
2022-11-21T13:42:23.439Z,100140.38
2022-11-21T13:45:43.554Z,100152.28
2022-11-21T13:49:10.002Z,100145.59
2022-11-21T13:52:26.294Z,100156.97
2022-11-21T13:55:47.194Z,100160.78
2022-11-21T13:59:04.073Z,100164.91
2022-11-21T14:02:30.381Z,100166.31
2022-11-21T14:05:47.788Z,100167.34
2022-11-21T14:09:28.933Z,100164.75
2022-11-21T14:12:44.068Z,100160.06
2022-11-21T14:15:57.876Z,100155.94
2022-11-21T14:19:00.729Z,100146.09
2022-11-21T14:22:02.410Z,100146.34
2022-11-21T14:25:10.720Z,100145.84
2022-11-21T14:28:16.564Z,100163.72
2022-11-21T14:31:19.091Z,100165.91
2022-11-21T14:34:28.842Z,100146.56
2022-11-21T14:37:45.195Z,100160.66
2022-11-21T14:41:12.255Z,100154.38
2022-11-21T14:44:20.159Z,100152.31
2022-11-21T14:47:26.231Z,100154.72
2022-11-21T14:50:31.561Z,100158.84
2022-11-21T14:53:33.307Z,100157.03
2022-11-21T14:56:34.970Z,100160.69
2022-11-21T14:59:41.867Z,100166.41
2022-11-21T15:02:43.450Z,100171.63
2022-11-21T15:06:01.928Z,100169.78
2022-11-21T15:12:41.485Z,100179.75
2022-11-21T15:15:51.016Z,100170.59
2022-11-21T15:18:52.903Z,100172.66
2022-11-21T15:21:57.413Z,100179.94
2022-11-21T15:25:29.566Z,100175.84
2022-11-21T15:28:31.890Z,100185.50
2022-11-21T15:31:33.452Z,100180.03
2022-11-21T15:37:57.788Z,100173.16
2022-11-21T15:41:05.452Z,100171.00
2022-11-21T15:44:07.029Z,100173.53
2022-11-21T15:47:08.624Z,100182.22
2022-11-21T15:50:10.424Z,100175.41
2022-11-21T15:53:19.227Z,100182.69
2022-11-21T15:56:23.064Z,100180.78
2022-11-21T15:57:15.536Z,100174.50
2022-11-21T15:59:25.268Z,100182.38
2022-11-21T16:02:26.840Z,100183.19
2022-11-21T16:05:28.513Z,100179.84
2022-11-21T16:08:30.627Z,100191.28
2022-11-21T16:11:34.730Z,100196.28
2022-11-21T16:14:36.381Z,100198.13
2022-11-21T16:17:39.368Z,100186.13
2022-11-21T16:20:41.162Z,100177.53
2022-11-21T16:23:43.242Z,100181.69
2022-11-21T16:26:44.989Z,100183.53
2022-11-21T16:29:47.048Z,100184.97
2022-11-21T16:32:51.160Z,100181.03
2022-11-21T16:35:56.707Z,100178.72
2022-11-21T16:39:05.257Z,100170.34
2022-11-21T16:42:11.387Z,100167.91
2022-11-21T16:45:13.098Z,100180.72
2022-11-21T16:48:14.958Z,100185.09
2022-11-21T16:51:20.102Z,100176.97
2022-11-21T16:54:22.083Z,100166.81
2022-11-21T16:57:23.646Z,100169.72
2022-11-21T17:00:26.681Z,100177.47
2022-11-21T17:03:28.417Z,100173.75
2022-11-21T17:06:31.550Z,100180.25
2022-11-21T17:09:33.280Z,100181.59
2022-11-21T17:12:39.447Z,100178.19
2022-11-21T17:15:41.271Z,100179.28
2022-11-21T17:18:43.802Z,100178.63
2022-11-21T17:21:45.972Z,100185.47
2022-11-21T17:24:47.763Z,100180.06
2022-11-21T17:27:49.723Z,100179.03
2022-11-21T17:30:51.447Z,100177.25
2022-11-21T17:33:55.356Z,100174.72
2022-11-21T17:36:57.447Z,100190.41
2022-11-21T17:39:59.679Z,100177.41
2022-11-21T17:43:01.657Z,100195.69
2022-11-21T17:46:11.330Z,100192.09
2022-11-21T17:49:13.714Z,100186.63
2022-11-21T17:52:15.658Z,100188.25
2022-11-21T17:55:17.483Z,100187.97
2022-11-21T17:58:19.541Z,100181.22
2022-11-21T18:01:22.077Z,100185.88
2022-11-21T18:04:24.153Z,100183.59
2022-11-21T18:07:26.700Z,100196.91
2022-11-21T18:10:43.023Z,100195.56
2022-11-21T18:13:45.732Z,100191.66
2022-11-21T18:16:52.787Z,100188.28
2022-11-21T18:19:55.137Z,100196.59
2022-11-21T18:22:56.980Z,100194.75
2022-11-21T18:26:04.667Z,100199.97
2022-11-21T18:32:29.953Z,100195.31
2022-11-21T18:35:31.814Z,100188.00
2022-11-21T18:38:56.523Z,100194.81
2022-11-21T18:41:57.628Z,100191.69
2022-11-21T18:44:59.624Z,100195.34
2022-11-21T18:48:01.463Z,100201.09
2022-11-21T18:51:15.459Z,100196.94
2022-11-21T18:54:17.417Z,100205.06
2022-11-21T18:57:19.175Z,100209.78
2022-11-21T19:00:21.093Z,100202.72
2022-11-21T19:03:24.094Z,100207.41
2022-11-21T19:06:27.487Z,100212.34
2022-11-21T19:09:32.470Z,100199.88
2022-11-21T19:12:39.528Z,100214.00
2022-11-21T19:15:42.997Z,100212.19
2022-11-21T19:18:59.831Z,100207.50
2022-11-21T19:22:09.102Z,100209.31
2022-11-21T19:25:10.651Z,100210.38
2022-11-21T19:28:12.548Z,100211.41
2022-11-21T19:31:17.076Z,100216.13
2022-11-21T19:34:18.995Z,100215.84
2022-11-21T19:37:21.188Z,100204.91
2022-11-21T19:40:25.011Z,100209.06
2022-11-21T19:43:31.257Z,100212.44
2022-11-21T19:46:37.644Z,100205.41
2022-11-21T19:49:39.434Z,100213.22
2022-11-21T19:52:41.078Z,100207.94
2022-11-21T19:55:42.875Z,100216.81
2022-11-21T19:58:45.581Z,100215.75
2022-11-21T20:01:52.373Z,100212.91
2022-11-21T20:04:54.305Z,100216.31
2022-11-21T20:08:01.691Z,100217.59
2022-11-21T20:11:10.274Z,100213.94
2022-11-21T20:14:19.664Z,100233.78
2022-11-21T20:17:22.906Z,100229.88
2022-11-21T20:20:24.806Z,100233.78
2022-11-21T20:23:26.681Z,100227.19
2022-11-21T20:26:28.711Z,100225.88
2022-11-21T20:29:31.910Z,100223.00
2022-11-21T20:32:34.986Z,100229.25
2022-11-21T20:35:39.122Z,100230.06
2022-11-21T20:38:41.742Z,100236.88
2022-11-21T20:41:45.288Z,100236.38
2022-11-21T20:48:13.565Z,100248.63
2022-11-21T20:54:39.523Z,100244.22
2022-11-21T20:57:41.945Z,100236.38
2022-11-21T21:00:43.637Z,100234.81
2022-11-21T21:03:45.434Z,100229.59
2022-11-21T21:06:47.141Z,100227.78
2022-11-21T21:09:48.766Z,100224.13
2022-11-21T21:12:51.221Z,100210.28
2022-11-21T21:15:52.831Z,100215.22
2022-11-21T21:18:55.382Z,100217.78
2022-11-21T21:21:57.102Z,100213.06
2022-11-21T21:24:58.909Z,100212.06
2022-11-21T21:28:00.470Z,100208.19
2022-11-21T21:31:06.875Z,100203.50
2022-11-21T21:34:09.738Z,100207.19
2022-11-21T21:37:11.365Z,100199.84
2022-11-21T21:40:13.201Z,100185.53
2022-11-21T21:43:14.858Z,100181.34
2022-11-21T21:46:18.267Z,100172.47
2022-11-21T21:49:20.271Z,100174.59
2022-11-21T21:52:21.841Z,100171.19
2022-11-21T21:55:23.439Z,100169.91
2022-11-21T21:58:25.205Z,100175.94
2022-11-21T22:01:29.618Z,100179.06
2022-11-21T22:04:33.047Z,100174.38
2022-11-21T22:07:34.738Z,100173.31
2022-11-21T22:10:36.384Z,100178.56
2022-11-21T22:13:39.674Z,100171.50
2022-11-21T22:16:42.452Z,100175.69
2022-11-21T22:19:44.023Z,100178.53
2022-11-21T22:22:45.625Z,100176.72
2022-11-21T22:25:47.285Z,100185.59
2022-11-21T22:28:49.041Z,100184.81
2022-11-21T22:31:51.535Z,100188.16
2022-11-21T22:34:53.079Z,100184.81
2022-11-21T22:37:54.676Z,100179.03
2022-11-21T22:41:23.780Z,100177.47
2022-11-21T22:44:25.358Z,100173.03
2022-11-21T22:47:26.964Z,100176.44
2022-11-21T22:50:29.211Z,100175.13
2022-11-21T22:53:34.459Z,100163.16
2022-11-21T22:56:38.711Z,100163.16
2022-11-21T22:59:40.371Z,100158.16
2022-11-21T23:02:42.089Z,100150.31
2022-11-21T23:05:43.682Z,100155.50
2022-11-21T23:08:45.897Z,100146.88
2022-11-21T23:11:47.433Z,100155.22
2022-11-21T23:14:49.029Z,100146.34
2022-11-21T23:17:52.638Z,100141.13
2022-11-21T23:20:54.388Z,100139.81
2022-11-21T23:23:56.298Z,100140.06
2022-11-21T23:26:57.874Z,100135.38
2022-11-21T23:29:59.479Z,100138.00
2022-11-21T23:33:01.305Z,100138.53
2022-11-21T23:36:02.878Z,100138.00
2022-11-21T23:39:04.841Z,100144.78
2022-11-21T23:42:06.467Z,100134.13
2022-11-21T23:45:08.687Z,100133.34
2022-11-21T23:48:10.276Z,100123.75
2022-11-21T23:51:12.019Z,100131.06
2022-11-21T23:54:13.657Z,100126.88
2022-11-21T23:57:15.234Z,100129.47
